Time;durP1;ratioP1;P1;durP2;ratioP2;P2;SDS_P1;SDS_P2;PMS_P1;PMS_P2;Temp;Humidity;BMP_temperature;BMP_pressure;BME280_temperature;BME280_humidity;BME280_pressure;Samples;Min_cycle;Max_cycle;Signal;HPM_P1;HPM_P2
2022/01/20 15:30:30;;;;;;;4.03;2.27;;;22.90;55.30;;;;;;6191569;23;20398;-82
2022/01/20 15:32:56;;;;;;;3.13;1.93;;;22.90;55.30;;;;;;6195226;23;20453;-83
2022/01/20 15:35:22;;;;;;;6.83;3.33;;;22.90;55.30;;;;;;6149163;23;20518;-85
2022/01/20 15:37:48;;;;;;;6.43;2.50;;;22.90;55.30;;;;;;6175742;23;20853;-84
2022/01/20 15:40:16;;;;;;;3.37;3.00;;;22.90;55.30;;;;;;6176406;23;20766;-84
2022/01/20 15:42:43;;;;;;;10.53;2.57;;;22.90;55.30;;;;;;6203060;23;20159;-83
2022/01/20 15:45:10;;;;;;;4.70;2.40;;;22.90;55.30;;;;;;6202264;23;20397;-83
2022/01/20 15:47:36;;;;;;;5.43;2.13;;;22.90;55.40;;;;;;6205498;23;20371;-83
2022/01/20 15:50:06;;;;;;;5.67;2.60;;;22.90;55.40;;;;;;6180806;23;20475;-83
2022/01/20 15:52:36;;;;;;;6.50;2.87;;;22.90;55.40;;;;;;6207550;23;20439;-84
2022/01/20 15:55:03;;;;;;;4.03;2.47;;;22.90;55.40;;;;;;6208167;23;20410;-84
2022/01/20 15:57:29;;;;;;;3.43;2.50;;;22.90;55.40;;;;;;6209491;23;20378;-84
2022/01/20 15:59:55;;;;;;;3.20;1.93;;;22.90;55.40;;;;;;6184933;23;20368;-84
2022/01/20 16:02:21;;;;;;;4.87;2.50;;;22.90;55.40;;;;;;6207329;23;20382;-84
2022/01/20 16:04:47;;;;;;;4.83;3.83;;;23.00;55.50;;;;;;6183304;23;20375;-84
2022/01/20 16:07:13;;;;;;;4.60;2.37;;;22.90;55.40;;;;;;6183860;23;20411;-84
2022/01/20 16:09:39;;;;;;;5.70;2.60;;;23.00;55.50;;;;;;6180657;23;20406;-84
2022/01/20 16:12:24;;;;;;;7.73;2.20;;;23.00;55.50;;;;;;6157653;23;20156;-84
2022/01/20 16:14:50;;;;;;;4.20;3.00;;;23.00;55.50;;;;;;6180917;23;20410;-84
2022/01/20 16:17:32;;;;;;;4.60;2.43;;;23.00;55.60;;;;;;6178369;23;20384;-86
2022/01/20 16:20:18;;;;;;;6.20;2.60;;;23.00;56.10;;;;;;6161942;23;20159;-84
2022/01/20 16:23:22;;;;;;;;;;;;;;;;;;;;;
2022/01/20 16:25:53;;;;;;;4.90;2.43;;;23.00;55.60;;;;;;6202762;23;20889;-85
2022/01/20 16:28:19;;;;;;;4.27;2.50;;;22.90;55.50;;;;;;6204992;23;20390;-85
2022/01/20 16:31:10;;;;;;;6.83;2.30;;;22.90;55.50;;;;;;6176098;23;20171;-85
2022/01/20 16:33:36;;;;;;;5.30;2.83;;;23.00;55.70;;;;;;6174761;23;20599;-85
2022/01/20 16:36:02;;;;;;;5.10;2.70;;;22.90;55.60;;;;;;6198027;23;20371;-85
2022/01/20 16:38:28;;;;;;;5.30;3.20;;;23.00;55.70;;;;;;6172473;23;20155;-85
2022/01/20 16:40:54;;;;;;;4.30;2.93;;;22.90;55.60;;;;;;6172138;23;20735;-86
2022/01/20 16:43:20;;;;;;;4.97;2.43;;;23.00;55.70;;;;;;6170874;23;20583;-85
2022/01/20 16:45:46;;;;;;;4.83;2.50;;;23.00;55.70;;;;;;6172611;23;20186;-85
2022/01/20 16:48:11;;;;;;;6.40;2.33;;;23.00;55.80;;;;;;6172617;23;20238;-85
2022/01/20 16:50:37;;;;;;;3.63;2.50;;;23.00;55.80;;;;;;6198476;23;20203;-84
2022/01/20 16:53:04;;;;;;;5.00;2.60;;;23.00;55.80;;;;;;6198363;23;20144;-84
2022/01/20 16:55:30;;;;;;;4.13;2.67;;;22.90;55.70;;;;;;6172367;23;20423;-84
2022/01/20 16:57:55;;;;;;;3.93;2.70;;;23.00;55.80;;;;;;6198440;23;20403;-85
2022/01/20 17:00:32;;;;;;;3.90;2.37;;;23.00;55.80;;;;;;6175955;23;20402;-84
2022/01/20 17:03:04;;;;;;;3.77;1.83;;;23.00;55.80;;;;;;6199647;23;20139;-85
2022/01/20 17:05:30;;;;;;;4.70;2.20;;;23.00;55.80;;;;;;6171407;23;20425;-85
2022/01/20 17:08:04;;;;;;;3.70;2.33;;;23.00;55.80;;;;;;6171649;23;20470;-85
2022/01/20 17:10:33;;;;;;;5.80;2.23;;;23.00;56.40;;;;;;6171781;23;20363;-84
2022/01/20 17:12:59;;;;;;;3.70;2.07;;;23.00;55.80;;;;;;6198642;23;20525;-84
2022/01/20 17:15:25;;;;;;;3.43;2.07;;;23.00;55.80;;;;;;6174799;23;20390;-84
2022/01/20 17:17:53;;;;;;;3.90;2.27;;;23.00;55.80;;;;;;6202163;23;20379;-85
2022/01/20 17:20:23;;;;;;;4.43;2.40;;;23.00;55.80;;;;;;6199508;23;20450;-84
2022/01/20 17:22:51;;;;;;;5.03;2.07;;;23.00;55.80;;;;;;6174518;23;20852;-84
2022/01/20 17:25:17;;;;;;;4.70;2.40;;;23.00;55.80;;;;;;6201187;23;20419;-84
2022/01/20 17:31:03;;;;;;;6.80;2.47;;;23.00;55.80;;;;;;6177228;23;20451;-84
2022/01/20 17:33:35;;;;;;;3.33;2.23;;;23.00;55.80;;;;;;6198168;23;20360;-84
2022/01/20 17:36:02;;;;;;;5.47;2.67;;;23.00;55.90;;;;;;6155537;23;20390;-85
2022/01/20 17:38:29;;;;;;;4.67;2.20;;;23.00;55.90;;;;;;6183574;23;20159;-85
2022/01/20 17:44:21;;;;;;;5.40;1.83;;;23.00;55.80;;;;;;6061597;23;20162;-85
2022/01/20 17:47:23;;;;;;;4.40;2.30;;;23.00;55.80;;;;;;6056560;23;20718;-85
2022/01/20 17:50:14;;;;;;;5.53;2.07;;;23.00;55.80;;;;;;6062865;23;20387;-85
2022/01/20 17:53:24;;;;;;;;;;;;;;;;;;;;;
2022/01/20 17:56:23;;;;;;;3.83;2.27;;;23.00;55.80;;;;;;6023243;23;20390;-85
2022/01/20 18:01:55;;;;;;;3.40;2.13;;;23.00;55.90;;;;;;6045964;23;20775;-85
2022/01/20 18:04:23;;;;;;;3.17;2.00;;;23.00;55.90;;;;;;6052770;23;20383;-84
2022/01/20 18:06:49;;;;;;;3.07;2.03;;;23.00;55.90;;;;;;6029832;23;20435;-85
2022/01/20 18:09:16;;;;;;;4.37;2.77;;;23.00;55.80;;;;;;6052510;23;20254;-86
2022/01/20 18:11:42;;;;;;;3.07;2.13;;;23.00;55.80;;;;;;6033335;23;20396;-84
2022/01/20 18:14:09;;;;;;;4.27;2.27;;;23.00;55.80;;;;;;6034576;23;20379;-85
2022/01/20 18:16:36;;;;;;;3.27;2.00;;;23.00;55.80;;;;;;6032535;23;20463;-84
2022/01/20 18:19:03;;;;;;;3.57;2.23;;;23.00;55.70;;;;;;6035165;23;20407;-85
2022/01/20 18:21:29;;;;;;;3.37;2.20;;;23.10;55.80;;;;;;6075343;23;20385;-85
2022/01/20 18:23:56;;;;;;;6.20;2.77;;;23.10;55.80;;;;;;6091084;23;20393;-84
2022/01/20 18:26:22;;;;;;;3.00;1.93;;;23.10;55.80;;;;;;6092643;23;20421;-85
2022/01/20 18:28:50;;;;;;;2.70;1.60;;;23.10;55.80;;;;;;6114544;23;20437;-85
2022/01/20 18:31:17;;;;;;;7.13;2.30;;;23.10;55.80;;;;;;6114012;23;20393;-84
2022/01/20 18:37:05;;;;;;;5.53;2.13;;;23.10;55.80;;;;;;6113355;23;20422;-84
2022/01/20 18:39:31;;;;;;;4.20;2.00;;;23.10;55.80;;;;;;6183382;23;20371;-83
2022/01/20 18:41:57;;;;;;;2.90;1.60;;;23.00;55.70;;;;;;6179556;23;20178;-83
2022/01/20 18:44:24;;;;;;;4.50;1.70;;;23.10;55.90;;;;;;6179870;23;20499;-84
2022/01/20 18:46:52;;;;;;;4.80;1.77;;;23.00;55.80;;;;;;6180351;23;20183;-84
2022/01/20 18:49:21;;;;;;;2.80;1.70;;;23.10;55.80;;;;;;6180054;23;20390;-84
2022/01/20 18:51:47;;;;;;;2.87;2.00;;;23.10;55.80;;;;;;6206054;23;20364;-83
2022/01/20 18:54:16;;;;;;;3.10;2.07;;;23.10;55.80;;;;;;6181428;23;20379;-84
2022/01/20 18:56:42;;;;;;;5.03;2.27;;;23.10;55.80;;;;;;6181983;23;20383;-84
2022/01/20 18:59:08;;;;;;;4.47;2.00;;;23.10;55.80;;;;;;6207237;23;20377;-84
2022/01/20 19:01:36;;;;;;;2.20;1.90;;;23.10;55.80;;;;;;6179464;23;20155;-83
2022/01/20 19:04:02;;;;;;;2.73;2.07;;;23.10;56.40;;;;;;6180034;23;20224;-84
2022/01/20 19:06:28;;;;;;;2.93;1.97;;;23.10;55.80;;;;;;6179897;23;20422;-84
2022/01/20 19:08:54;;;;;;;4.23;1.87;;;23.10;55.80;;;;;;6178919;23;20406;-84
2022/01/20 19:11:33;;;;;;;3.10;1.67;;;23.10;55.80;;;;;;6180251;23;20710;-83
2022/01/20 19:13:59;;;;;;;4.80;2.47;;;23.10;55.80;;;;;;6179784;23;20182;-83
2022/01/20 19:16:28;;;;;;;2.77;1.77;;;23.10;55.80;;;;;;6180139;23;20407;-83
2022/01/20 19:18:56;;;;;;;5.83;3.40;;;23.10;55.80;;;;;;6155494;23;20869;-84
2022/01/20 19:21:26;;;;;;;3.00;1.80;;;23.10;55.80;;;;;;6182341;23;20371;-83
2022/01/20 19:23:52;;;;;;;2.83;1.90;;;23.10;55.80;;;;;;6210100;23;20360;-84
2022/01/20 19:26:19;;;;;;;3.00;2.00;;;23.10;55.80;;;;;;6184033;23;20426;-83
2022/01/20 19:28:49;;;;;;;2.57;1.67;;;23.10;55.80;;;;;;6209082;23;20474;-85
2022/01/20 19:31:15;;;;;;;3.77;2.60;;;23.10;55.80;;;;;;6182129;23;20410;-84
2022/01/20 19:33:41;;;;;;;3.80;2.70;;;23.10;55.80;;;;;;6209794;23;20367;-83
2022/01/20 19:36:08;;;;;;;3.60;1.67;;;23.10;55.80;;;;;;6211179;23;20374;-84
2022/01/20 19:38:34;;;;;;;3.80;1.60;;;23.10;55.80;;;;;;6211151;23;20384;-85
2022/01/20 19:41:00;;;;;;;5.30;2.23;;;23.10;55.80;;;;;;6209058;23;20390;-84
2022/01/20 19:43:26;;;;;;;2.57;1.40;;;23.10;55.80;;;;;;6184999;23;20383;-84
2022/01/20 19:45:52;;;;;;;3.20;1.77;;;23.10;55.80;;;;;;6185933;23;20187;-83
2022/01/20 19:48:19;;;;;;;2.60;1.90;;;23.10;55.80;;;;;;6185468;23;20395;-84
2022/01/20 19:50:54;;;;;;;3.83;2.17;;;23.10;55.80;;;;;;6185328;23;20179;-85
2022/01/20 19:53:23;;;;;;;2.17;1.57;;;23.10;55.80;;;;;;6185659;23;20439;-85
2022/01/20 19:55:49;;;;;;;3.13;1.90;;;23.10;55.80;;;;;;6185146;23;20413;-85
2022/01/20 20:01:37;;;;;;;2.63;1.70;;;23.10;55.80;;;;;;6211439;23;20135;-84
2022/01/20 20:04:03;;;;;;;2.90;1.90;;;23.00;55.70;;;;;;6184381;23;20830;-83
2022/01/20 20:06:29;;;;;;;3.43;2.20;;;23.00;55.70;;;;;;6181461;23;20190;-84
2022/01/20 20:08:56;;;;;;;2.30;1.53;;;23.00;55.70;;;;;;6181335;23;20162;-83
2022/01/20 20:11:23;;;;;;;4.03;1.90;;;23.00;55.70;;;;;;6206834;23;20375;-84
2022/01/20 20:13:49;;;;;;;2.80;1.80;;;23.00;55.70;;;;;;6180941;23;20451;-84
2022/01/20 20:16:18;;;;;;;2.60;1.70;;;23.00;55.70;;;;;;6206870;23;20384;-84
2022/01/20 20:18:44;;;;;;;3.30;1.73;;;23.00;55.70;;;;;;6180995;23;20387;-84
2022/01/20 20:21:11;;;;;;;2.90;1.50;;;23.00;55.70;;;;;;6181528;23;20451;-83
2022/01/20 20:23:37;;;;;;;4.20;1.80;;;23.00;55.70;;;;;;6183308;23;20414;-83
2022/01/20 20:26:03;;;;;;;3.10;2.13;;;23.00;55.70;;;;;;6182711;23;20418;-84
2022/01/20 20:28:29;;;;;;;1.97;1.43;;;23.00;55.70;;;;;;6181729;23;20371;-83
2022/01/20 20:30:55;;;;;;;2.20;1.47;;;23.00;55.70;;;;;;6179526;23;20941;-83
2022/01/20 20:33:21;;;;;;;4.30;1.77;;;23.00;55.70;;;;;;6207966;23;20371;-83
2022/01/20 20:35:47;;;;;;;2.07;1.37;;;23.00;55.70;;;;;;6184676;23;20156;-84
2022/01/20 20:38:13;;;;;;;2.10;1.40;;;23.00;55.70;;;;;;6182763;23;20159;-83
2022/01/20 20:40:40;;;;;;;3.93;2.33;;;23.00;55.70;;;;;;6206986;23;20148;-83
2022/01/20 20:43:06;;;;;;;1.97;1.67;;;23.00;55.70;;;;;;6207120;23;20151;-83
2022/01/20 20:45:36;;;;;;;2.73;1.60;;;23.00;55.70;;;;;;6181135;23;20426;-84
2022/01/20 20:48:03;;;;;;;2.70;1.73;;;23.00;55.60;;;;;;6183613;23;20148;-84
2022/01/20 20:50:29;;;;;;;3.47;1.73;;;23.00;55.60;;;;;;6181581;23;20390;-83
2022/01/20 20:52:59;;;;;;;1.63;1.30;;;23.00;55.70;;;;;;6181132;23;20427;-83
2022/01/20 20:55:25;;;;;;;2.23;1.50;;;23.00;55.60;;;;;;6180686;23;20391;-84
2022/01/20 20:57:51;;;;;;;2.37;1.50;;;23.00;55.60;;;;;;6206747;23;20406;-84
2022/01/20 21:00:23;;;;;;;2.20;1.70;;;23.00;55.70;;;;;;6206887;23;20375;-84
2022/01/20 21:02:48;;;;;;;3.33;2.10;;;22.90;55.50;;;;;;6206834;23;20355;-84
2022/01/20 21:05:15;;;;;;;2.70;1.77;;;22.90;55.50;;;;;;6183259;23;20433;-84
2022/01/20 21:07:43;;;;;;;2.30;1.60;;;22.90;55.60;;;;;;6182963;23;20706;-84
2022/01/20 21:10:12;;;;;;;2.00;1.70;;;22.90;55.50;;;;;;6183876;23;20379;-85
2022/01/20 21:12:39;;;;;;;3.50;1.80;;;22.90;55.50;;;;;;6209130;23;20374;-84
2022/01/20 21:15:05;;;;;;;2.57;1.93;;;22.90;55.50;;;;;;6182872;23;20375;-84
2022/01/20 21:17:32;;;;;;;3.20;1.97;;;22.90;55.50;;;;;;6158251;23;20383;-84
2022/01/20 21:19:58;;;;;;;2.47;1.70;;;22.90;55.50;;;;;;6182202;23;20400;-84
2022/01/20 21:22:25;;;;;;;2.37;1.60;;;22.90;55.60;;;;;;6182450;23;20387;-84
2022/01/20 21:25:00;;;;;;;2.20;1.70;;;22.90;55.60;;;;;;6182688;23;20387;-83
2022/01/20 21:27:26;;;;;;;3.70;1.50;;;22.90;55.60;;;;;;6182601;23;20374;-83
2022/01/20 21:33:15;;;;;;;2.23;1.20;;;22.90;55.60;;;;;;6209349;23;20387;-83
2022/01/20 21:39:11;;;;;;;3.20;1.60;;;22.90;55.60;;;;;;6208386;23;20318;-84
2022/01/20 21:41:40;;;;;;;2.23;1.90;;;22.80;55.60;;;;;;6207818;23;20379;-83
2022/01/20 21:44:07;;;;;;;2.47;1.90;;;22.80;55.60;;;;;;6183014;23;20379;-83
2022/01/20 21:46:33;;;;;;;2.33;1.60;;;22.80;55.60;;;;;;6208785;23;20411;-84
2022/01/20 21:48:59;;;;;;;2.13;1.80;;;22.80;55.60;;;;;;6209314;23;20418;-84
2022/01/20 21:51:28;;;;;;;1.83;1.30;;;22.80;55.50;;;;;;6183928;23;20391;-83
2022/01/20 21:53:56;;;;;;;3.27;1.47;;;22.90;55.60;;;;;;6185314;23;20379;-83
2022/01/20 21:56:23;;;;;;;2.17;1.43;;;22.80;55.50;;;;;;6184314;23;20383;-84
2022/01/20 21:58:49;;;;;;;3.20;1.50;;;22.80;55.50;;;;;;6184322;23;20450;-84
2022/01/20 22:01:15;;;;;;;2.33;1.37;;;22.80;55.50;;;;;;6209552;23;20375;-83
2022/01/20 22:03:41;;;;;;;2.73;1.63;;;22.80;55.50;;;;;;6184611;23;20379;-83
2022/01/20 22:06:08;;;;;;;2.87;1.40;;;22.80;55.50;;;;;;6209866;23;20414;-83
2022/01/20 22:08:38;;;;;;;2.07;1.40;;;22.80;55.50;;;;;;6160356;23;20387;-83
2022/01/20 22:11:06;;;;;;;2.93;1.33;;;22.80;55.50;;;;;;6208662;23;20363;-84
2022/01/20 22:13:38;;;;;;;3.30;1.50;;;22.80;55.50;;;;;;6185053;23;20379;-84
2022/01/20 22:16:13;;;;;;;2.70;1.40;;;22.80;55.60;;;;;;6185296;23;20363;-84
2022/01/20 22:18:39;;;;;;;2.20;1.43;;;22.80;55.50;;;;;;6181454;23;20442;-84
2022/01/20 22:21:16;;;;;;;2.40;1.30;;;22.80;55.50;;;;;;6180616;23;20477;-85
2022/01/20 22:23:49;;;;;;;2.33;1.60;;;22.80;55.40;;;;;;6181455;23;20367;-85
2022/01/20 22:26:16;;;;;;;1.90;1.27;;;22.80;55.40;;;;;;6212802;23;20402;-84
2022/01/20 22:28:48;;;;;;;2.00;1.20;;;22.80;55.40;;;;;;6186860;23;20390;-84
2022/01/20 22:31:14;;;;;;;2.57;1.33;;;22.80;55.40;;;;;;6187438;23;20395;-84
2022/01/20 22:33:48;;;;;;;4.10;1.33;;;22.80;55.50;;;;;;6187801;23;20402;-84
2022/01/20 22:36:15;;;;;;;2.60;1.33;;;22.80;55.50;;;;;;6164174;23;20433;-85
2022/01/20 22:38:45;;;;;;;1.50;1.00;;;22.70;55.40;;;;;;6187929;23;20371;-85
2022/01/20 22:41:12;;;;;;;3.57;1.87;;;22.70;55.40;;;;;;6188248;23;20378;-85
2022/01/20 22:43:38;;;;;;;2.80;1.33;;;22.70;55.40;;;;;;6213725;23;20375;-85
2022/01/20 22:46:15;;;;;;;3.37;1.33;;;22.70;55.40;;;;;;6188297;23;20422;-85
2022/01/20 22:48:41;;;;;;;2.80;1.50;;;22.70;55.40;;;;;;6213764;23;20383;-85
2022/01/20 22:51:16;;;;;;;2.30;1.60;;;22.70;55.50;;;;;;6188073;23;20375;-85
2022/01/20 22:53:44;;;;;;;2.20;1.67;;;22.70;55.40;;;;;;6187306;23;20371;-85
2022/01/20 22:56:13;;;;;;;2.13;1.23;;;22.70;55.40;;;;;;6185242;23;20389;-85
2022/01/20 22:58:41;;;;;;;2.43;1.37;;;22.70;55.50;;;;;;6185880;23;20375;-85
2022/01/20 23:01:14;;;;;;;2.27;1.30;;;22.70;55.50;;;;;;6185497;23;20375;-84
2022/01/20 23:03:42;;;;;;;3.57;1.20;;;22.70;55.50;;;;;;6183193;23;20414;-84
2022/01/20 23:06:11;;;;;;;4.77;1.50;;;22.70;55.50;;;;;;6209528;23;20494;-84
2022/01/20 23:08:37;;;;;;;1.97;1.30;;;22.70;55.50;;;;;;6213919;23;20390;-84
2022/01/20 23:14:25;;;;;;;1.70;1.30;;;22.70;55.50;;;;;;6215483;23;20366;-84
2022/01/20 23:25:24;;;;;;;2.43;1.23;;;22.70;55.50;;;;;;6214021;23;20202;-84
2022/01/20 23:31:15;;;;;;;1.70;1.17;;;22.60;55.50;;;;;;6213486;23;20358;-84
2022/01/20 23:33:44;;;;;;;1.23;1.00;;;22.60;55.50;;;;;;6186081;23;20363;-84
2022/01/20 23:36:11;;;;;;;1.50;1.20;;;22.60;55.50;;;;;;6185254;23;20428;-84
2022/01/20 23:38:37;;;;;;;2.30;1.33;;;22.60;55.50;;;;;;6183828;23;20378;-84
2022/01/20 23:41:16;;;;;;;2.83;1.33;;;22.60;55.50;;;;;;6183853;23;20387;-84
2022/01/20 23:49:16;;;;;;;2.10;1.30;;;22.60;55.50;;;;;;6118325;23;20377;-84
2022/01/20 23:51:42;;;;;;;1.80;1.40;;;22.60;55.50;;;;;;6116427;23;20373;-84
2022/01/20 23:54:08;;;;;;;1.40;1.30;;;22.60;55.50;;;;;;6117117;23;20385;-84
2022/01/20 23:56:38;;;;;;;1.83;1.20;;;22.60;55.50;;;;;;6091602;23;20393;-84
2022/01/20 23:59:05;;;;;;;2.43;1.23;;;22.60;55.50;;;;;;6092480;23;20385;-84
